Time;durP1;ratioP1;P1;durP2;ratioP2;P2;SDS_P1;SDS_P2;PMS_P1;PMS_P2;Temp;Humidity;BMP_temperature;BMP_pressure;BME280_temperature;BME280_humidity;BME280_pressure;Samples;Min_cycle;Max_cycle;Signal;HPM_P1;HPM_P2
2023/05/06 00:00:58;;;;;;;15.85;11.40;;;15.60;99.90;;;;;;4995403;28;20030;-69
2023/05/06 00:03:24;;;;;;;16.42;11.00;;;15.60;99.90;;;;;;5012715;28;20034;-69
2023/05/06 00:05:49;;;;;;;16.40;11.90;;;15.60;99.90;;;;;;5012841;28;20419;-70
2023/05/06 00:08:15;;;;;;;18.02;13.23;;;15.60;99.90;;;;;;5012640;28;20014;-69
2023/05/06 00:10:41;;;;;;;19.98;13.70;;;15.20;99.90;;;;;;5013366;28;20018;-70
2023/05/06 00:13:07;;;;;;;22.23;13.70;;;15.30;99.90;;;;;;4995365;28;20476;-69
2023/05/06 00:15:34;;;;;;;19.67;12.90;;;15.30;99.90;;;;;;5012665;28;20042;-70
2023/05/06 00:18:00;;;;;;;18.55;13.65;;;15.20;99.90;;;;;;5012613;28;20034;-70
2023/05/06 00:20:26;;;;;;;18.88;13.48;;;15.20;99.90;;;;;;5012852;28;20044;-69
2023/05/06 00:22:52;;;;;;;17.85;14.02;;;15.10;99.90;;;;;;5012813;28;20022;-69
2023/05/06 00:25:18;;;;;;;18.65;13.48;;;15.20;99.90;;;;;;5012305;28;20045;-68
2023/05/06 00:27:43;;;;;;;19.35;13.52;;;15.20;99.90;;;;;;5012402;28;20080;-70
2023/05/06 00:30:10;;;;;;;19.75;14.00;;;15.30;99.90;;;;;;4994761;28;20480;-69
2023/05/06 00:32:36;;;;;;;19.55;13.85;;;15.30;99.90;;;;;;4994799;28;20033;-69
2023/05/06 00:35:02;;;;;;;21.05;14.07;;;15.30;99.90;;;;;;5012542;28;20022;-69
2023/05/06 00:37:28;;;;;;;20.27;13.90;;;15.30;99.90;;;;;;5012304;28;20050;-69
2023/05/06 00:39:53;;;;;;;19.83;13.32;;;15.30;99.90;;;;;;5011899;28;20044;-70
2023/05/06 00:42:22;;;;;;;25.45;15.02;;;15.30;99.90;;;;;;5012077;28;20060;-69
2023/05/06 00:44:48;;;;;;;24.38;14.18;;;15.20;99.90;;;;;;5011529;28;20034;-69
2023/05/06 00:47:14;;;;;;;19.92;14.23;;;15.30;99.90;;;;;;5011952;28;20029;-69
2023/05/06 00:49:40;;;;;;;19.95;13.52;;;15.30;99.90;;;;;;5012516;28;20445;-68
2023/05/06 00:52:07;;;;;;;22.20;13.68;;;15.30;99.90;;;;;;4994847;28;20030;-69
2023/05/06 00:54:33;;;;;;;20.55;13.55;;;15.20;99.90;;;;;;5011946;28;20034;-69
2023/05/06 00:56:58;;;;;;;17.95;12.55;;;15.30;99.90;;;;;;5011838;28;20030;-69
2023/05/06 00:59:24;;;;;;;19.60;12.88;;;15.20;99.90;;;;;;5011982;28;20040;-70
2023/05/06 01:01:51;;;;;;;15.55;11.20;;;15.10;99.90;;;;;;5012365;28;20068;-69
2023/05/06 01:04:17;;;;;;;13.18;10.43;;;15.20;99.90;;;;;;4994335;28;20457;-71
2023/05/06 01:06:49;;;;;;;17.75;11.35;;;15.20;99.90;;;;;;4994360;28;20353;-69
2023/05/06 01:09:47;;;;;;;13.65;10.13;;;15.30;99.90;;;;;;4994525;28;20137;-70
2023/05/06 01:12:20;;;;;;;;;;;15.20;99.90;;;;;;5011345;28;20122;-71
2023/05/06 01:14:58;;;;;;;15.00;11.07;;;15.10;99.90;;;;;;5011627;28;19920;-70
2023/05/06 01:17:28;;;;;;;15.50;11.35;;;15.20;99.90;;;;;;5011207;28;20109;-70
2023/05/06 01:19:58;;;;;;;15.55;12.02;;;15.20;99.90;;;;;;5011854;28;20457;-69
2023/05/06 01:22:25;;;;;;;16.88;11.00;;;15.20;99.90;;;;;;5011609;28;20034;-69
2023/05/06 01:24:51;;;;;;;15.07;11.40;;;15.20;99.90;;;;;;5011213;28;20030;-70
2023/05/06 01:27:17;;;;;;;13.68;10.60;;;15.10;99.90;;;;;;5011601;28;20103;-69
2023/05/06 01:29:45;;;;;;;14.35;10.68;;;15.10;99.90;;;;;;5011078;28;20093;-68
2023/05/06 01:32:26;;;;;;;17.80;12.13;;;15.00;99.90;;;;;;5011152;28;20377;-69
2023/05/06 01:35:10;;;;;;;14.85;11.32;;;15.00;99.90;;;;;;5011485;28;20037;-69
2023/05/06 01:37:51;;;;;;;15.52;11.15;;;15.00;99.90;;;;;;5011161;28;20048;-69
2023/05/06 01:40:17;;;;;;;17.48;11.60;;;14.80;99.90;;;;;;5011058;28;20034;-68
2023/05/06 01:42:47;;;;;;;15.32;11.40;;;14.80;99.90;;;;;;5011076;28;20037;-70
2023/05/06 01:45:14;;;;;;;18.17;12.02;;;14.80;99.90;;;;;;4993677;28;20030;-69
2023/05/06 01:47:40;;;;;;;15.30;11.90;;;14.80;99.90;;;;;;5011090;28;20038;-69
2023/05/06 01:50:07;;;;;;;16.15;11.15;;;14.70;99.90;;;;;;5011693;28;20026;-69
2023/05/06 01:52:32;;;;;;;18.13;11.77;;;14.60;99.90;;;;;;5010888;28;20037;-69
2023/05/06 01:54:58;;;;;;;16.50;10.90;;;14.60;99.90;;;;;;5010511;28;20038;-70
2023/05/06 01:57:24;;;;;;;14.45;9.23;;;14.60;99.90;;;;;;5010825;28;20030;-69
2023/05/06 01:59:49;;;;;;;14.38;9.52;;;14.60;99.90;;;;;;5011327;28;20044;-70
2023/05/06 02:02:15;;;;;;;13.40;8.80;;;14.60;99.90;;;;;;5011227;28;20022;-69
2023/05/06 02:04:41;;;;;;;11.68;8.80;;;14.60;99.90;;;;;;5011790;28;20030;-70
2023/05/06 02:07:07;;;;;;;13.35;8.80;;;14.50;99.90;;;;;;4993686;28;20113;-69
2023/05/06 02:09:32;;;;;;;14.55;9.38;;;14.50;99.90;;;;;;5010851;28;20049;-68
2023/05/06 02:11:58;;;;;;;15.57;9.38;;;14.50;99.90;;;;;;5010808;28;20026;-70
2023/05/06 02:14:23;;;;;;;12.40;9.45;;;14.60;99.90;;;;;;5010653;28;20041;-70
2023/05/06 02:16:49;;;;;;;11.27;8.60;;;14.40;99.90;;;;;;5011329;28;20095;-71
2023/05/06 02:19:15;;;;;;;11.45;8.65;;;14.30;99.90;;;;;;5010591;28;20056;-67
2023/05/06 02:21:40;;;;;;;11.88;7.90;;;14.30;99.90;;;;;;5010559;28;20035;-69
2023/05/06 02:24:06;;;;;;;10.90;8.00;;;14.40;99.90;;;;;;5010633;28;20026;-69
2023/05/06 02:26:32;;;;;;;12.48;8.40;;;14.40;99.90;;;;;;5010499;28;20045;-69
2023/05/06 02:28:57;;;;;;;11.98;8.23;;;14.50;99.90;;;;;;4993590;28;20022;-70
2023/05/06 02:31:23;;;;;;;12.70;7.47;;;14.50;99.90;;;;;;5010708;28;20030;-70
2023/05/06 02:33:49;;;;;;;9.75;6.60;;;14.50;99.90;;;;;;5010665;28;20030;-69
2023/05/06 02:36:15;;;;;;;9.27;6.97;;;14.50;99.90;;;;;;4992998;28;20490;-70
2023/05/06 02:38:40;;;;;;;10.68;6.47;;;14.30;99.90;;;;;;5010690;28;20057;-68
2023/05/06 02:41:06;;;;;;;8.90;6.03;;;14.30;99.90;;;;;;5011050;28;20152;-69
2023/05/06 02:43:32;;;;;;;9.90;6.80;;;14.20;99.90;;;;;;5010666;28;20464;-69
2023/05/06 02:45:57;;;;;;;10.75;6.95;;;14.20;99.90;;;;;;5010460;28;20041;-69
2023/05/06 02:48:23;;;;;;;10.05;6.78;;;14.30;99.90;;;;;;5010849;28;20026;-70
2023/05/06 02:50:50;;;;;;;9.75;6.78;;;14.30;99.90;;;;;;4993578;28;20029;-68
2023/05/06 02:53:16;;;;;;;9.23;6.40;;;14.30;99.90;;;;;;5010774;28;20051;-68
2023/05/06 02:55:41;;;;;;;8.55;6.32;;;14.30;99.90;;;;;;5011178;28;20033;-69
2023/05/06 02:58:07;;;;;;;11.00;7.07;;;14.30;99.90;;;;;;5010663;28;20026;-69
2023/05/06 03:00:33;;;;;;;9.70;6.80;;;14.30;99.90;;;;;;5010751;28;20030;-69
2023/05/06 03:02:59;;;;;;;9.52;6.70;;;14.30;99.90;;;;;;5010493;28;20029;-68
2023/05/06 03:05:24;;;;;;;10.60;6.88;;;14.30;99.90;;;;;;5010303;28;20059;-70
2023/05/06 03:07:50;;;;;;;8.77;6.50;;;14.40;99.90;;;;;;5013668;28;20030;-70
2023/05/06 03:10:16;;;;;;;11.75;6.95;;;14.40;99.90;;;;;;5014007;28;20135;-70
2023/05/06 03:12:42;;;;;;;10.20;6.90;;;14.40;99.90;;;;;;5013833;28;20034;-69
2023/05/06 03:15:08;;;;;;;13.75;7.38;;;14.50;99.90;;;;;;5013982;28;20029;-69
2023/05/06 03:17:33;;;;;;;9.95;6.32;;;14.60;99.90;;;;;;4996567;28;20037;-70
2023/05/06 03:19:59;;;;;;;9.32;6.95;;;14.50;99.90;;;;;;5014622;28;20344;-68
2023/05/06 03:22:25;;;;;;;9.23;7.10;;;14.50;99.90;;;;;;5013946;28;20061;-69
2023/05/06 03:24:51;;;;;;;8.68;6.45;;;14.50;99.90;;;;;;5013943;28;20035;-69
2023/05/06 03:27:17;;;;;;;10.10;7.00;;;14.40;99.90;;;;;;5013709;28;20125;-69
2023/05/06 03:29:42;;;;;;;11.43;7.70;;;14.40;99.90;;;;;;5013674;28;20128;-69
2023/05/06 03:32:08;;;;;;;9.70;6.97;;;14.40;99.90;;;;;;5014545;28;20021;-69
2023/05/06 03:34:33;;;;;;;10.32;7.28;;;14.50;99.90;;;;;;5033522;28;20045;-68
2023/05/06 03:36:59;;;;;;;11.60;7.47;;;14.50;99.90;;;;;;5033838;28;20037;-69
2023/05/06 03:39:25;;;;;;;12.90;7.72;;;14.50;99.90;;;;;;5033463;28;20041;-70
2023/05/06 03:41:50;;;;;;;12.90;8.48;;;14.40;99.90;;;;;;5033479;28;20029;-70
2023/05/06 03:44:16;;;;;;;12.27;8.65;;;14.30;99.90;;;;;;5015988;28;20021;-70
2023/05/06 03:46:42;;;;;;;11.25;8.82;;;14.30;99.90;;;;;;5033837;28;20101;-68
2023/05/06 03:49:07;;;;;;;13.25;7.93;;;14.40;99.90;;;;;;5015980;28;20064;-69
2023/05/06 03:51:34;;;;;;;13.13;8.25;;;14.40;99.90;;;;;;5033342;28;20029;-70
2023/05/06 03:54:00;;;;;;;12.23;8.48;;;14.40;99.90;;;;;;5033753;28;20109;-70
2023/05/06 03:56:26;;;;;;;15.18;9.52;;;14.40;99.90;;;;;;5034945;28;20370;-71
2023/05/06 03:58:53;;;;;;;12.63;9.27;;;14.30;99.90;;;;;;5035497;28;20033;-69
2023/05/06 04:01:19;;;;;;;12.43;8.68;;;14.30;99.90;;;;;;5032951;28;20414;-68
2023/05/06 04:03:45;;;;;;;15.15;9.48;;;14.30;99.90;;;;;;5032942;28;20048;-69
2023/05/06 04:06:10;;;;;;;12.65;9.25;;;14.30;99.90;;;;;;5032627;28;20033;-69
2023/05/06 04:08:36;;;;;;;13.52;9.07;;;14.20;99.90;;;;;;5033106;28;20080;-70
2023/05/06 04:11:06;;;;;;;17.95;10.43;;;14.00;99.90;;;;;;5032968;28;20466;-71
2023/05/06 04:13:35;;;;;;;15.10;9.18;;;14.10;99.90;;;;;;5032700;28;20091;-69
2023/05/06 04:16:04;;;;;;;15.52;9.75;;;14.20;99.90;;;;;;5032568;28;20061;-70
2023/05/06 04:18:30;;;;;;;14.88;10.13;;;14.10;99.90;;;;;;5031956;28;20369;-70
2023/05/06 04:20:56;;;;;;;15.50;10.02;;;14.10;99.90;;;;;;5032602;28;20593;-70
2023/05/06 04:23:21;;;;;;;16.48;10.98;;;14.20;99.90;;;;;;5032540;28;20112;-70
2023/05/06 04:25:48;;;;;;;14.13;10.40;;;14.30;99.90;;;;;;5033115;28;20026;-69
2023/05/06 04:28:15;;;;;;;27.70;17.50;;;14.10;99.90;;;;;;5014913;28;20033;-70
2023/05/06 04:30:42;;;;;;;21.33;13.35;;;14.10;99.90;;;;;;5014647;28;20053;-68
2023/05/06 04:33:08;;;;;;;14.88;9.75;;;14.10;99.90;;;;;;5032426;28;20462;-69
2023/05/06 04:35:34;;;;;;;12.63;9.02;;;14.00;99.90;;;;;;5032053;28;20037;-69
2023/05/06 04:38:01;;;;;;;16.35;10.00;;;14.10;99.90;;;;;;5015229;28;20043;-69
2023/05/06 04:40:27;;;;;;;14.00;9.88;;;14.10;99.90;;;;;;5032202;28;20064;-69
2023/05/06 04:42:53;;;;;;;15.85;10.55;;;14.00;99.90;;;;;;5014589;28;20029;-69
2023/05/06 04:45:18;;;;;;;14.57;9.88;;;14.10;99.90;;;;;;5032108;28;20013;-70
2023/05/06 04:47:44;;;;;;;19.50;10.10;;;14.10;99.90;;;;;;5032023;28;20455;-69
2023/05/06 04:50:10;;;;;;;15.00;10.07;;;14.10;99.90;;;;;;5032355;28;20061;-69
2023/05/06 04:52:36;;;;;;;12.57;9.23;;;13.90;99.90;;;;;;5032043;28;20072;-69
2023/05/06 04:55:02;;;;;;;15.95;10.30;;;14.00;99.90;;;;;;5031798;28;20061;-71
2023/05/06 04:57:32;;;;;;;15.95;10.98;;;14.00;99.90;;;;;;5031740;28;20037;-69
2023/05/06 04:59:57;;;;;;;15.00;10.43;;;13.90;99.90;;;;;;5031676;28;20030;-70
2023/05/06 05:02:23;;;;;;;16.70;10.90;;;14.00;99.90;;;;;;5014191;28;20108;-70
2023/05/06 05:04:49;;;;;;;15.27;11.10;;;14.00;99.90;;;;;;5032220;28;20188;-70
2023/05/06 05:07:15;;;;;;;14.18;9.93;;;14.00;99.90;;;;;;5031512;28;20053;-70
2023/05/06 05:09:41;;;;;;;16.55;9.52;;;14.00;99.90;;;;;;5031536;28;20033;-70
2023/05/06 05:12:07;;;;;;;14.85;10.25;;;14.00;99.90;;;;;;5031357;28;20033;-70
2023/05/06 05:14:32;;;;;;;15.63;10.52;;;14.00;99.90;;;;;;5031314;28;20071;-69
2023/05/06 05:16:58;;;;;;;16.27;10.68;;;13.90;99.90;;;;;;5032189;28;20029;-69
2023/05/06 05:19:24;;;;;;;16.75;10.55;;;13.90;99.90;;;;;;5031461;28;20486;-69
2023/05/06 05:21:50;;;;;;;17.50;10.70;;;14.00;99.90;;;;;;5031481;28;20029;-69
2023/05/06 05:24:15;;;;;;;15.05;10.10;;;14.00;99.90;;;;;;5031394;28;20029;-69
2023/05/06 05:26:41;;;;;;;15.77;9.95;;;14.00;99.90;;;;;;5031135;28;20048;-70
2023/05/06 05:29:06;;;;;;;15.02;10.27;;;14.10;99.90;;;;;;5031171;28;20068;-69
2023/05/06 05:31:32;;;;;;;16.40;11.75;;;14.10;99.90;;;;;;5031109;28;20041;-70
2023/05/06 05:33:58;;;;;;;16.88;11.68;;;14.10;99.90;;;;;;5031208;28;20391;-68
2023/05/06 05:36:25;;;;;;;15.38;10.20;;;14.00;99.90;;;;;;5031056;28;20491;-69
2023/05/06 05:38:50;;;;;;;15.00;10.80;;;14.20;99.90;;;;;;5031098;28;20452;-69
2023/05/06 05:41:16;;;;;;;14.63;10.35;;;14.20;99.90;;;;;;5031199;28;20037;-69
2023/05/06 05:43:41;;;;;;;13.88;10.45;;;14.10;99.90;;;;;;5031465;28;20053;-69
2023/05/06 05:46:07;;;;;;;15.65;9.90;;;14.20;99.90;;;;;;5030974;28;20374;-69
2023/05/06 05:48:33;;;;;;;12.57;9.60;;;14.30;99.90;;;;;;5013470;28;20451;-69
2023/05/06 05:51:02;;;;;;;16.73;11.00;;;14.40;99.90;;;;;;5030769;28;20412;-68
2023/05/06 05:53:28;;;;;;;19.02;10.52;;;14.40;99.90;;;;;;5031040;28;20025;-70
2023/05/06 05:55:53;;;;;;;17.60;11.48;;;14.60;99.90;;;;;;5013750;28;20099;-69
2023/05/06 05:58:19;;;;;;;20.98;10.88;;;14.50;99.90;;;;;;5019710;28;20110;-67
2023/05/06 06:00:45;;;;;;;15.45;11.18;;;14.50;99.90;;;;;;5011051;28;20113;-68
2023/05/06 06:03:10;;;;;;;16.58;11.27;;;14.70;99.90;;;;;;5011076;28;20092;-70
2023/05/06 06:05:36;;;;;;;15.07;10.38;;;14.70;99.90;;;;;;5010408;28;20355;-71
2023/05/06 06:08:03;;;;;;;15.15;10.38;;;14.80;99.90;;;;;;5011397;28;20432;-68
2023/05/06 06:10:28;;;;;;;16.08;11.13;;;14.80;99.90;;;;;;5010998;28;20034;-70
2023/05/06 06:12:54;;;;;;;18.50;12.80;;;15.00;99.90;;;;;;5009944;28;20498;-69
2023/05/06 06:15:20;;;;;;;17.95;12.15;;;14.70;99.90;;;;;;5010854;28;20049;-70
2023/05/06 06:17:46;;;;;;;17.95;12.50;;;14.80;99.90;;;;;;5011363;28;20026;-69
2023/05/06 06:20:12;;;;;;;16.65;11.95;;;14.90;99.90;;;;;;5011158;28;20041;-69
2023/05/06 06:22:38;;;;;;;18.90;12.13;;;15.00;99.90;;;;;;5011230;28;20026;-71
2023/05/06 06:25:04;;;;;;;17.60;12.15;;;15.10;99.90;;;;;;5010834;28;20140;-69
2023/05/06 06:27:34;;;;;;;20.15;12.80;;;15.10;99.90;;;;;;5011078;28;20038;-70
2023/05/06 06:30:00;;;;;;;20.95;12.43;;;15.10;99.90;;;;;;5010573;28;20046;-71
2023/05/06 06:32:25;;;;;;;20.40;12.75;;;15.10;99.90;;;;;;5010714;28;20037;-72
2023/05/06 06:34:51;;;;;;;19.13;12.43;;;15.00;99.90;;;;;;5011156;28;20048;-71
2023/05/06 06:37:16;;;;;;;19.70;12.60;;;15.00;99.90;;;;;;5009601;28;20368;-69
2023/05/06 06:39:42;;;;;;;19.80;12.48;;;15.10;99.90;;;;;;5010560;28;20062;-69
2023/05/06 06:42:08;;;;;;;21.60;13.32;;;15.00;99.90;;;;;;5012108;28;20058;-69
2023/05/06 06:44:34;;;;;;;21.52;14.05;;;15.10;99.90;;;;;;5014326;28;20029;-71
2023/05/06 06:47:00;;;;;;;19.90;12.38;;;15.30;99.90;;;;;;5014896;28;20029;-69
2023/05/06 06:49:26;;;;;;;20.05;12.65;;;15.40;99.90;;;;;;5014339;28;20037;-68
2023/05/06 06:51:52;;;;;;;18.25;11.77;;;15.30;99.90;;;;;;5014308;28;20495;-69
2023/05/06 06:54:17;;;;;;;17.45;12.00;;;15.40;99.90;;;;;;5014351;28;20030;-69
2023/05/06 06:56:43;;;;;;;17.85;11.85;;;15.40;99.90;;;;;;5013972;28;20034;-70
2023/05/06 06:59:09;;;;;;;17.25;11.27;;;15.40;99.90;;;;;;5014592;28;20030;-73
2023/05/06 07:01:34;;;;;;;19.05;11.88;;;15.50;99.90;;;;;;5014118;28;20392;-72
2023/05/06 07:04:00;;;;;;;20.88;12.80;;;15.30;99.90;;;;;;5014227;28;20030;-71
2023/05/06 07:06:26;;;;;;;21.05;12.13;;;15.40;99.90;;;;;;5014112;28;20141;-72
2023/05/06 07:08:51;;;;;;;18.77;12.05;;;15.50;99.90;;;;;;5014017;28;20041;-72
2023/05/06 07:11:17;;;;;;;19.05;10.82;;;15.90;99.90;;;;;;5014275;28;20026;-71
2023/05/06 07:13:43;;;;;;;19.13;11.00;;;16.40;99.90;;;;;;5014638;28;20034;-71
2023/05/06 07:16:08;;;;;;;16.88;10.38;;;16.80;99.90;;;;;;5013795;28;20033;-71
2023/05/06 07:18:34;;;;;;;15.10;9.85;;;17.00;99.90;;;;;;5012704;28;20026;-71
2023/05/06 07:21:00;;;;;;;16.60;10.40;;;17.00;99.90;;;;;;5013916;28;20034;-72
2023/05/06 07:23:25;;;;;;;17.95;11.57;;;17.00;99.90;;;;;;5012423;28;20348;-69
2023/05/06 07:25:51;;;;;;;17.30;10.73;;;16.60;99.90;;;;;;5014086;28;20423;-74
2023/05/06 07:28:17;;;;;;;20.52;13.70;;;16.70;99.90;;;;;;5013678;28;20040;-71
2023/05/06 07:30:43;;;;;;;15.45;10.65;;;16.80;99.90;;;;;;5013453;28;20061;-72
2023/05/06 07:33:09;;;;;;;14.07;10.02;;;16.90;99.90;;;;;;5013820;28;20032;-72
2023/05/06 07:35:35;;;;;;;17.20;11.05;;;16.90;99.90;;;;;;5013497;28;20034;-71
2023/05/06 07:38:01;;;;;;;14.70;10.73;;;16.90;99.90;;;;;;5014139;28;20041;-72
2023/05/06 07:40:26;;;;;;;14.65;10.57;;;17.00;99.90;;;;;;5013407;28;20042;-71
2023/05/06 07:42:52;;;;;;;18.17;10.48;;;17.40;99.90;;;;;;5013422;28;20357;-73
2023/05/06 07:45:18;;;;;;;14.75;10.90;;;17.70;99.30;;;;;;5013238;28;20034;-72
2023/05/06 07:47:44;;;;;;;12.77;9.60;;;17.80;98.90;;;;;;5013282;28;20022;-72
2023/05/06 07:50:10;;;;;;;13.68;9.45;;;18.10;98.90;;;;;;5014398;28;20021;-72
2023/05/06 07:52:35;;;;;;;15.60;10.43;;;18.10;98.40;;;;;;5012917;28;20409;-73
2023/05/06 07:55:01;;;;;;;14.90;9.38;;;18.10;98.20;;;;;;5012447;28;20125;-72
2023/05/06 07:57:26;;;;;;;14.57;9.23;;;18.00;98.20;;;;;;4995681;28;20037;-72
2023/05/06 07:59:52;;;;;;;14.00;8.77;;;18.00;97.90;;;;;;5012946;28;20463;-73
2023/05/06 08:02:17;;;;;;;9.77;7.15;;;17.90;97.60;;;;;;5013180;28;20431;-70
2023/05/06 08:04:44;;;;;;;13.85;7.60;;;17.80;97.70;;;;;;4996007;28;20018;-73
2023/05/06 08:07:10;;;;;;;11.02;7.75;;;18.00;98.00;;;;;;5012882;28;20097;-76
2023/05/06 08:09:36;;;;;;;12.52;7.95;;;18.30;97.50;;;;;;5012924;28;20026;-75
2023/05/06 08:12:02;;;;;;;9.60;6.47;;;18.40;96.90;;;;;;5012793;28;20030;-75
2023/05/06 08:14:28;;;;;;;12.18;7.72;;;18.60;96.70;;;;;;5012660;28;20456;-75
2023/05/06 08:16:54;;;;;;;12.60;7.53;;;18.60;96.70;;;;;;5013411;28;20108;-75
2023/05/06 08:19:20;;;;;;;10.88;7.20;;;18.60;96.30;;;;;;4995657;28;20080;-74
2023/05/06 08:21:47;;;;;;;11.20;7.03;;;18.70;96.30;;;;;;5012784;28;20026;-74
2023/05/06 08:24:13;;;;;;;10.93;6.82;;;18.80;96.10;;;;;;5012569;28;20026;-74
2023/05/06 08:26:39;;;;;;;12.45;7.68;;;18.80;96.00;;;;;;5011472;28;20712;-76
2023/05/06 08:29:06;;;;;;;13.10;8.10;;;18.60;95.60;;;;;;5012822;28;20160;-74
2023/05/06 08:31:31;;;;;;;11.15;7.38;;;18.10;96.40;;;;;;5012757;28;20111;-76
2023/05/06 08:33:57;;;;;;;10.07;7.80;;;18.40;96.50;;;;;;5012717;28;20117;-75
2023/05/06 08:36:23;;;;;;;12.07;8.82;;;18.40;96.40;;;;;;5012304;28;20388;-76
2023/05/06 08:38:49;;;;;;;13.05;8.55;;;18.30;96.40;;;;;;5012366;28;20029;-76
2023/05/06 08:41:20;;;;;;;11.57;7.88;;;18.40;96.70;;;;;;5012391;28;20037;-75
2023/05/06 08:43:47;;;;;;;14.63;9.23;;;18.30;96.70;;;;;;5012585;28;20083;-75
2023/05/06 08:46:13;;;;;;;10.82;7.95;;;18.30;96.70;;;;;;5012192;28;20022;-75
2023/05/06 08:48:40;;;;;;;12.73;8.45;;;18.60;96.90;;;;;;5012031;28;20091;-76
2023/05/06 08:51:06;;;;;;;10.65;7.72;;;18.80;96.50;;;;;;5011992;28;20033;-75
2023/05/06 08:53:32;;;;;;;15.10;8.70;;;19.10;96.40;;;;;;5012010;28;20534;-75
2023/05/06 08:56:05;;;;;;;12.50;8.05;;;19.70;95.70;;;;;;5011462;28;20022;-74
2023/05/06 08:58:37;;;;;;;12.80;8.18;;;19.90;95.80;;;;;;5012129;28;20026;-74
2023/05/06 09:01:03;;;;;;;10.50;8.00;;;20.40;94.60;;;;;;5011982;28;20363;-74
2023/05/06 09:03:29;;;;;;;16.80;8.35;;;20.70;94.20;;;;;;5012017;28;20104;-74
2023/05/06 09:05:56;;;;;;;11.50;8.60;;;20.80;94.30;;;;;;4994039;28;20030;-73
2023/05/06 09:08:22;;;;;;;11.48;7.25;;;20.80;93.90;;;;;;5011694;28;20471;-74
2023/05/06 09:10:48;;;;;;;10.63;7.45;;;20.90;93.60;;;;;;4978595;28;20026;-74
2023/05/06 09:13:16;;;;;;;12.25;7.22;;;21.20;93.70;;;;;;5011883;28;20056;-74
2023/05/06 09:15:46;;;;;;;13.73;8.75;;;21.40;93.10;;;;;;5011736;28;20455;-74
2023/05/06 09:18:12;;;;;;;11.20;8.45;;;21.40;93.00;;;;;;5011785;28;20038;-75
2023/05/06 09:20:42;;;;;;;11.50;7.60;;;21.20;92.20;;;;;;5011487;28;20125;-74
2023/05/06 09:23:10;;;;;;;12.20;8.80;;;21.20;92.60;;;;;;5010927;28;20037;-74
2023/05/06 09:25:36;;;;;;;13.45;9.75;;;21.00;92.70;;;;;;5011547;28;20544;-75
2023/05/06 09:28:04;;;;;;;14.60;9.13;;;20.00;92.90;;;;;;5011586;28;20044;-74
2023/05/06 09:30:29;;;;;;;12.00;8.13;;;20.10;93.70;;;;;;5011442;28;20046;-74
2023/05/06 09:32:55;;;;;;;15.18;9.27;;;20.10;93.70;;;;;;5011580;28;20038;-75
2023/05/06 09:35:26;;;;;;;10.57;7.28;;;20.10;93.70;;;;;;5011448;28;20030;-75
2023/05/06 09:37:52;;;;;;;17.27;7.70;;;20.20;93.60;;;;;;5011791;28;20072;-74
2023/05/06 09:40:18;;;;;;;12.98;6.93;;;20.60;93.10;;;;;;5011396;28;20038;-75
2023/05/06 09:42:44;;;;;;;16.15;8.70;;;20.80;92.70;;;;;;5011334;28;20037;-74
2023/05/06 09:45:09;;;;;;;11.18;7.63;;;20.70;92.00;;;;;;5011114;28;20037;-75
2023/05/06 09:47:35;;;;;;;11.45;7.75;;;20.00;92.40;;;;;;5009903;28;20045;-75
2023/05/06 09:50:02;;;;;;;14.15;9.60;;;20.20;93.10;;;;;;5011570;28;20406;-75
2023/05/06 09:52:28;;;;;;;13.23;8.82;;;20.00;92.80;;;;;;5011005;28;20076;-74
2023/05/06 09:54:54;;;;;;;12.88;8.18;;;20.40;93.00;;;;;;5011206;28;20087;-75
2023/05/06 09:57:21;;;;;;;16.63;8.88;;;20.20;92.60;;;;;;5011098;28;20460;-75
2023/05/06 09:59:47;;;;;;;15.10;8.57;;;20.00;93.10;;;;;;5011404;28;20048;-74
2023/05/06 10:02:13;;;;;;;14.00;8.23;;;20.20;92.90;;;;;;5011469;28;20065;-75
2023/05/06 10:04:40;;;;;;;13.75;8.55;;;20.70;92.80;;;;;;5011517;28;20033;-75
2023/05/06 10:07:11;;;;;;;13.65;7.88;;;20.90;92.00;;;;;;5010141;28;20518;-75
2023/05/06 10:09:38;;;;;;;15.13;9.15;;;20.60;91.90;;;;;;5010891;28;20480;-75
2023/05/06 10:12:07;;;;;;;14.70;8.25;;;20.80;92.00;;;;;;5011117;28;20030;-74
2023/05/06 10:14:36;;;;;;;15.60;8.32;;;21.00;91.90;;;;;;4993249;28;20033;-76
2023/05/06 10:17:10;;;;;;;18.45;11.55;;;21.30;91.70;;;;;;5011899;28;20367;-75
2023/05/06 10:19:39;;;;;;;13.57;8.38;;;21.40;91.60;;;;;;4995393;28;20038;-74
2023/05/06 10:22:26;;;;;;;15.25;8.07;;;21.60;91.40;;;;;;4995339;28;20034;-76
2023/05/06 10:24:58;;;;;;;13.73;7.72;;;21.40;90.90;;;;;;4995248;28;20034;-74
2023/05/06 10:27:24;;;;;;;13.52;8.60;;;21.20;91.40;;;;;;4995407;28;20038;-75
2023/05/06 10:29:55;;;;;;;20.90;9.07;;;21.40;91.70;;;;;;4995085;28;20129;-74
2023/05/06 10:32:21;;;;;;;13.25;7.72;;;21.40;91.20;;;;;;4996620;28;20465;-73
2023/05/06 10:34:53;;;;;;;17.33;9.63;;;21.40;91.00;;;;;;5015331;28;20048;-75
2023/05/06 10:37:27;;;;;;;13.93;8.25;;;20.90;90.80;;;;;;5013503;28;20026;-75
2023/05/06 10:39:55;;;;;;;17.02;9.25;;;21.10;91.40;;;;;;5013619;28;20030;-73
2023/05/06 10:42:27;;;;;;;13.82;9.10;;;20.80;91.60;;;;;;5014933;28;20034;-74
2023/05/06 10:44:57;;;;;;;15.75;10.00;;;21.00;91.50;;;;;;5014524;28;20140;-75
2023/05/06 10:47:23;;;;;;;18.30;9.65;;;21.10;91.70;;;;;;5014520;28;20018;-75
2023/05/06 10:50:20;;;;;;;13.63;8.82;;;21.20;91.40;;;;;;5014747;28;20148;-75
2023/05/06 10:52:47;;;;;;;13.10;8.13;;;21.30;91.60;;;;;;5013858;28;20037;-74
2023/05/06 10:55:34;;;;;;;11.90;8.10;;;21.30;91.10;;;;;;5013307;28;20476;-75
2023/05/06 10:58:13;;;;;;;15.02;9.05;;;21.10;90.90;;;;;;5012932;28;20124;-75
2023/05/06 11:00:40;;;;;;;19.80;11.48;;;21.20;91.30;;;;;;5013231;28;20471;-74
2023/05/06 11:03:17;;;;;;;13.90;8.75;;;21.40;91.00;;;;;;5014176;28;20460;-74
2023/05/06 11:05:50;;;;;;;15.68;8.65;;;21.20;90.60;;;;;;4996784;28;20452;-74
2023/05/06 11:08:24;;;;;;;14.18;8.95;;;20.80;90.70;;;;;;5014032;28;20061;-74
2023/05/06 11:10:50;;;;;;;15.32;8.35;;;20.80;91.10;;;;;;5014583;28;20101;-73
2023/05/06 11:13:27;;;;;;;14.70;8.27;;;20.70;91.10;;;;;;5014201;28;20022;-73
2023/05/06 11:15:57;;;;;;;16.70;8.43;;;20.90;91.40;;;;;;5013980;28;20026;-74
2023/05/06 11:18:30;;;;;;;16.95;9.15;;;21.20;91.00;;;;;;5013873;28;20456;-74
2023/05/06 11:21:01;;;;;;;14.25;8.77;;;21.30;90.70;;;;;;5013810;28;20072;-72
2023/05/06 11:23:56;;;;;;;23.45;10.88;;;21.10;91.00;;;;;;5013477;28;20448;-75
2023/05/06 11:26:23;;;;;;;14.95;9.38;;;20.70;91.40;;;;;;5013431;28;20124;-75
2023/05/06 11:28:50;;;;;;;17.85;9.63;;;21.00;91.40;;;;;;5013787;28;20030;-74
2023/05/06 11:31:16;;;;;;;15.57;9.15;;;21.30;91.20;;;;;;5013521;28;20046;-74
2023/05/06 11:33:48;;;;;;;12.65;8.80;;;21.40;91.30;;;;;;5013620;28;20042;-71
2023/05/06 11:36:18;;;;;;;16.50;9.77;;;21.50;91.10;;;;;;5013413;28;20125;-74
2023/05/06 11:38:48;;;;;;;17.42;9.98;;;21.50;90.70;;;;;;5013745;28;20040;-71
2023/05/06 11:41:15;;;;;;;20.83;11.25;;;21.40;90.90;;;;;;5013681;28;20026;-71
2023/05/06 11:43:51;;;;;;;16.50;10.40;;;21.50;91.00;;;;;;5013039;28;20116;-72
2023/05/06 11:46:22;;;;;;;17.55;10.85;;;21.50;90.90;;;;;;5013401;28;20026;-74
2023/05/06 11:48:49;;;;;;;16.48;10.02;;;21.30;90.80;;;;;;5013592;28;20093;-72
2023/05/06 11:51:15;;;;;;;13.52;9.85;;;21.30;91.00;;;;;;5013233;28;20365;-72
2023/05/06 11:53:41;;;;;;;43.40;24.13;;;21.20;91.00;;;;;;5013152;28;20461;-72
2023/05/06 11:56:07;;;;;;;19.67;11.82;;;21.10;91.10;;;;;;5012388;28;20064;-72
2023/05/06 11:58:32;;;;;;;17.27;10.25;;;21.00;90.80;;;;;;5013179;28;20329;-72
2023/05/06 12:01:00;;;;;;;16.67;9.27;;;21.00;91.20;;;;;;5013175;28;20022;-72
2023/05/06 12:03:28;;;;;;;20.23;10.60;;;21.00;91.20;;;;;;5013317;28;20033;-72
2023/05/06 12:05:54;;;;;;;;;;;21.00;91.30;;;;;;5013469;28;20030;-73
2023/05/06 12:08:25;;;;;;;18.33;8.77;;;21.00;91.30;;;;;;5013021;28;19989;-73
2023/05/06 12:10:57;;;;;;;14.20;8.55;;;20.90;91.60;;;;;;5013743;28;20014;-73
2023/05/06 12:13:23;;;;;;;14.60;9.68;;;20.80;91.50;;;;;;5013312;28;20026;-72
2023/05/06 12:15:49;;;;;;;16.45;8.43;;;20.80;91.70;;;;;;5012430;28;20452;-74
2023/05/06 12:18:15;;;;;;;13.70;8.35;;;20.70;91.60;;;;;;5012876;28;20026;-72
2023/05/06 12:20:41;;;;;;;13.30;7.75;;;20.70;91.50;;;;;;5012833;28;20026;-74
2023/05/06 12:23:08;;;;;;;11.60;7.57;;;20.50;91.50;;;;;;5013118;28;20029;-73
2023/05/06 12:25:34;;;;;;;10.90;7.40;;;20.50;91.40;;;;;;5011985;28;20034;-75
2023/05/06 12:28:00;;;;;;;9.48;6.85;;;20.60;91.40;;;;;;5012658;28;20038;-73
2023/05/06 12:30:35;;;;;;;11.25;6.78;;;20.70;91.50;;;;;;5012346;28;20050;-73
2023/05/06 12:33:01;;;;;;;12.15;6.85;;;20.70;91.40;;;;;;5012436;28;20041;-72